x

8419317 - Wells, Me (welm1) Weather Station

5:54 - Tue 4th Aug 2015 All times are EDT. -4 hours from GMT.

  • Wind
    7mph, 10mph gusts
  • Sea Temp 60°f
  • Luft Temp 73°f
  • Sea Pressure 1008.8mb
  • 8419317 - Wells, Me
  • 8419317 - Wells, Me

More Historic Weather Station data

Upgrade to MSW Pro to gain access to the past 30 days of data for over 8000 Wavebouys and Weather Stations around the globe.

Join Pro

Comparision Forecast

View Surf forecast
   
Di 08/04 5:54 7 10 mph 1008.8mb 60f 73f
5:48 11 14 mph 1008.7mb 59f 72f
5:42 2 5 mph 1008.6mb 59f 73f
5:36 3 7 mph 1008.4mb 59f 71f
5:30 6 7 mph 1008.3mb 59f 71f
5:24 7 9 mph 1008.3mb 59f 70f
5:18 7 9 mph 1008.3mb 59f 70f
5:12 6 9 mph 1008.2mb 59f 70f
5:06 8 14 mph 1008.1mb 59f 69f
5:00 11 13 mph 1008.1mb 59f 68f
4:54 10 13 mph 1008.2mb 58f 67f
4:48 10 15 mph 1008.2mb 58f 67f
4:42 10 14 mph 1008.3mb 58f 67f
4:36 13 21 mph 1008.3mb 58f 68f
4:30 22 24 mph 1008.6mb 58f 69f
4:24 15 18 mph 1008.7mb 58f 68f
4:18 7 8 mph 1008.8mb 58f 67f
4:12 7 8 mph 1008.6mb 58f 66f
4:06 3 6 mph 1008.5mb 58f 67f
4:00 6 9 mph 1008.2mb 58f 65f
3:54 7 8 mph 1008.1mb 58f 65f
3:48 1 6 mph 1007.5mb 57f 67f
3:42 6
mph
1007.6mb 57f 66f
3:36 5 10 mph 1008mb 57f 66f
3:30 8 10 mph 1007.9mb 57f 66f
3:24 10 13 mph 1008.3mb 57f 66f
3:18 7 9 mph 1008.3mb 57f 66f
3:12 1 10 mph 1008.1mb 57f 67f
3:06 11 13 mph 1007.9mb 57f 66f
3:00 11 14 mph 1007.9mb 57f 67f
2:54 9 11 mph 1008mb 57f 66f
2:48 10 14 mph 1007.8mb 57f 65f
2:42 11 14 mph 1007.6mb 57f 64f
2:36 9 13 mph 1007.7mb 58f 65f
2:30 11 14 mph 1008.2mb 58f 65f
2:24 11 14 mph 1008mb 58f 65f
2:18 11 15 mph 1008.1mb 58f 65f
2:12 11 15 mph 1008mb 58f 65f
2:06 13 15 mph 1008.2mb 58f 65f
2:00 13 16 mph 1008mb 58f 66f
1:54 14 17 mph 1008.3mb 58f 66f
1:48 13 17 mph 1008.1mb 58f 67f
1:42 13 18 mph 1008.4mb 58f 67f
1:36 13 17 mph 1008.5mb 58f 67f
1:30 10 14 mph 1008.4mb 58f 67f
1:24 10 15 mph 1008.6mb 58f 67f
1:18 10 14 mph 1008.6mb 58f 68f
1:12 11 15 mph 1008.8mb 58f 67f
1:06 13 15 mph 1008.8mb 58f 68f
1:00 10 13 mph 1008.8mb 58f 68f
12:54 8 13 mph 1008.9mb 57f 67f
12:48 11 16 mph 1009mb 57f 68f
12:42 10 16 mph 1009mb 57f 68f
12:36 11 13 mph 1009.1mb 57f 68f
12:30 10 14 mph 1009mb 57f 68f
12:24 10 13 mph 1009.1mb 57f 68f
12:18 10 14 mph 1009.1mb 57f 68f
12:12 9 11 mph 1009mb 57f 69f
12:06 8 9 mph 1009.1mb 58f 69f
12:00 8 10 mph 1009.3mb 58f 69f
11:54 9 10 mph 1009.4mb 58f 69f
11:48 8 10 mph 1009.5mb 58f 69f
11:42 8 11 mph 1009.5mb 59f 69f
11:36 10 13 mph 1009.6mb 60f 69f
11:30 10 13 mph 1009.8mb 60f 68f
11:24 11 14 mph 1009.9mb 60f 68f
11:18 13 15 mph 1010mb 60f 68f
11:12 13 16 mph 1010mb 60f 68f
11:06 9 13 mph 1009.8mb 60f 70f
11:00 11 14 mph 1009.9mb 60f 69f
10:54 10 11 mph 1009.9mb 60f 69f
10:48 7 8 mph 1009.9mb 60f 71f
10:42 8 10 mph 1009.8mb 60f 70f
10:36 7 14 mph 1009.9mb 60f 70f
10:30 11 14 mph 1009.8mb 60f 70f
10:24 3 5 mph 1009.5mb 60f 71f
10:18 2 3 mph 1009.5mb 60f 71f
10:12 1 3 mph 1009.5mb 60f 69f
10:06 2 3 mph 1009.4mb 60f 68f
10:00 2 3 mph 1009.4mb 59f 67f
9:54 2
mph
1009.4mb 59f 66f
9:48  -  3 mph 1009.4mb 59f 66f
9:42 2 5 mph 1009.5mb 59f 65f
9:36 5
mph
1009.5mb 59f 66f
9:30 5 6 mph 1009.3mb - 65f
9:24 3 5 mph 1009.6mb - 64f
9:18 3
mph
1009.9mb 59f 64f
9:12 1 2 mph 1009.9mb 58f 65f
9:06  -  1 mph 1010mb 58f 65f
9:00 1 2 mph 1009.9mb 58f 65f
8:54  -  1 mph 1009.8mb 58f 65f
8:48 1 2 mph 1009.7mb 58f 65f
8:42 1 2 mph 1009.6mb 58f 64f
8:36 2
mph
1009.5mb 58f 64f
8:30  -  mph 1009.5mb 58f 64f
8:24  -  mph 1009.4mb 58f 63f
8:18 2
mph
1009.3mb 58f 64f
8:12  -  1 mph 1009.1mb 58f 64f
8:06 1 2 mph 1009.2mb 58f 64f
8:00 2 6 mph 1009.3mb 58f 64f
7:54 6 7 mph 1009.1mb 58f 64f
7:48 6 8 mph 1008.9mb 58f 64f
7:42 6 7 mph 1008.9mb 59f 65f
7:36 2 3 mph 1008.7mb 59f 65f
7:30 1 2 mph 1008.4mb 59f 66f
7:24 1 2 mph 1008.4mb 58f 65f
7:18 2
mph
1008.6mb 58f 65f
7:12  -  2 mph 1008.4mb 58f 66f
7:06 3
mph
1008.6mb 58f 65f
7:00  -  3 mph 1008.2mb 58f 65f
6:54 3 5 mph 1008mb 58f 65f
6:48 3 5 mph 1008mb 58f 64f
6:42 2 3 mph 1007.9mb 58f 64f
6:36 5 9 mph 1008.3mb 58f 64f
6:30 5 7 mph 1008.4mb 58f 65f
6:24 2
mph
1008.4mb 58f 65f
6:18  -  1 mph 1008.5mb 58f 65f
6:12 1 2 mph 1008.4mb 58f 66f
6:06 1 2 mph 1008.4mb 58f 66f
6:00 1
mph
1008.6mb 57f 65f
5:54  -  1 mph 1008.7mb 57f 64f
5:48 1 3 mph 1008.7mb 57f 64f
5:42 2
mph
1008.6mb 57f 63f
5:36  -  3 mph 1008.7mb 57f 64f
5:30 3
mph
1008.5mb 57f 64f
5:24 3 5 mph 1008.5mb 57f 65f
5:18  -  1 mph 1008.5mb 57f 64f
5:12  -  2 mph 1008.6mb 57f 64f
5:06  -  mph 1008.4mb 56f 64f
5:00  -  2 mph 1008.5mb 56f 63f
4:54 2
mph
1008.2mb 56f 63f
4:48 2
mph
1008.3mb 56f 62f
4:42 2 3 mph 1008.1mb 56f 61f
4:36 3
mph
1008.1mb 56f 62f
4:30 3
mph
1008.1mb 56f 62f
4:24 1
mph
1008.2mb 56f 62f
4:18  -  1 mph 1008.1mb 56f 61f
4:12  -  1 mph 1008.1mb 56f 62f
4:06  -  1 mph 1008mb 56f 63f
4:00  -  2 mph 1007.9mb 55f 62f
3:54 2 3 mph 1007.9mb 55f 63f
3:48 2
mph
1007.9mb 55f 64f
3:42 2
mph
1007.9mb 55f 64f
3:36 1
mph
1008mb 55f 63f
3:30  -  1 mph 1007.9mb 55f 63f
3:24  -  2 mph 1008mb 55f 63f
3:18  -  1 mph 1008mb 55f 64f
3:12 1
mph
1008mb 55f 64f
3:06  -  1 mph 1008.1mb 55f 64f
3:00  -  mph 1008mb 55f 64f
2:54  -  1 mph 1007.9mb 55f 64f
2:48 1
mph
1008mb 55f 64f
2:42  -  1 mph 1007.9mb 55f 64f
2:36  -  1 mph 1007.8mb 55f 64f
2:30  -  mph 1007.8mb 55f 64f
2:24  -  1 mph 1007.8mb 55f 64f
2:18 1
mph
1007.8mb 55f 64f
2:12 2
mph
1007.6mb 55f 63f
2:06 1 2 mph 1007.6mb 55f 63f
2:00  -  1 mph 1007.6mb 55f 63f
1:54  -  1 mph 1007.6mb 55f 63f
1:48 2
mph
1007.7mb 55f 64f
1:42 1 3 mph 1007.8mb 55f 64f
1:36 2 3 mph 1007.8mb 55f 65f
1:30 5
mph
1008mb 55f 64f
1:24 3 5 mph 1008.2mb 56f 65f
1:18 3
mph
1008.2mb 56f 64f
1:12 3 7 mph 1008.2mb 56f 64f
1:06 8
mph
1008.1mb 56f 64f
1:00 7 8 mph 1008.2mb 56f 64f
12:54 5 6 mph 1008.2mb 56f 65f
12:48 1 3 mph 1008.2mb 56f 67f
12:42  -  2 mph 1008.2mb 56f 67f
12:36 2 5 mph 1008.1mb 56f 68f
12:30 3 6 mph 1008mb 56f 68f
12:24 5 6 mph 1008.1mb 56f 68f
12:18 6 11 mph 1008mb 56f 68f
12:12 11 14 mph 1008.1mb 56f 68f
12:06 5 7 mph 1008.1mb 56f 68f
12:00 5 7 mph 1008.1mb 56f 68f
Mo 08/03 11:54 1 5 mph 1007.9mb 56f 68f
11:48 2 7 mph 1008mb 56f 68f
11:42 5 7 mph 1008mb 57f 68f
11:36 5 6 mph 1008mb 57f 68f
11:30 3 5 mph 1008mb 57f 68f
11:24 2 6 mph 1007.9mb 57f 69f
11:18 3 6 mph 1007.9mb 57f 68f
11:12 6
mph
1008mb 58f 68f
11:06 5 7 mph 1008mb 59f 69f
11:00 3 7 mph 1008.4mb 59f 68f
10:54 5 8 mph 1008.6mb 60f 68f
10:48 6 14 mph 1008.6mb 62f 68f
10:42 16 29 mph 1008.6mb 66f 68f
10:36 14 22 mph 1008.6mb 68f 74f
10:30 13 20 mph 1008.2mb 68f 76f
10:24 6 9 mph 1008.1mb 68f 75f
10:18 3 6 mph 1008.1mb 68f 74f
10:12 3 6 mph 1008mb 68f 72f
10:06 6 8 mph 1007.9mb 68f 71f
10:00 1 2 mph 1007.6mb 68f 73f
9:54 2 3 mph 1007.5mb 68f 73f
9:48 5 8 mph 1007.4mb 68f 72f
9:42 6 7 mph 1007.5mb 68f 71f
9:36 8 9 mph 1007.4mb 68f 71f
9:30 8 10 mph 1007.3mb 68f 72f
9:24 5 6 mph 1007.3mb 68f 75f
9:18 2 6 mph 1007.2mb 68f 78f
9:12 7 11 mph 1007.1mb 68f 79f
9:06 6 7 mph 1007mb 68f 78f
9:00 2 6 mph 1006.9mb 68f 78f
8:54 3 6 mph 1006.8mb 68f 78f
8:48 2 6 mph 1006.7mb 68f 78f
8:42 5 7 mph 1006.6mb 68f 78f
8:36 2 7 mph 1006.5mb 67f 77f
8:30 3 9 mph 1006.5mb 67f 75f
8:24 9 10 mph 1006.5mb 66f 72f
8:18 11 14 mph 1006.4mb 66f 77f
8:12 11 13 mph 1006.4mb 66f 77f
8:06 11 15 mph 1006.3mb 66f 77f
8:00 13 14 mph 1006.3mb 66f 77f
7:54 13 16 mph 1006.3mb 66f 77f
7:48 11 14 mph 1006.3mb 67f 77f
7:42 13 15 mph 1006.4mb 67f 78f
7:36 13 16 mph 1006.4mb 67f 79f
7:30 11 16 mph 1006.3mb 67f 78f
7:24 13 17 mph 1006.2mb 67f 79f
7:18 14 18 mph 1006.1mb 67f 79f
7:12 14 20 mph 1006.1mb 67f 79f
7:06 16 20 mph 1005.9mb 67f 78f
7:00 14 16 mph 1005.8mb 67f 77f
6:54 10 14 mph 1005.9mb 67f 74f
6:48 11 16 mph 1005.9mb 66f 75f
6:42 13 16 mph 1005.8mb 66f 76f
6:36 13 17 mph 1005.8mb 66f 72f
6:30 15 18 mph 1005.7mb 66f 72f
6:24 15 17 mph 1005.6mb 66f 73f
6:18 15 21 mph 1005.5mb 66f 71f
6:12 18 21 mph 1005.5mb 66f 71f
6:06 18 23 mph 1005.4mb 65f 74f
6:00 20 22 mph 1005.3mb 65f 73f
5:54 22 25 mph 1005.5mb 65f 73f
5:48 21 26 mph 1005.6mb 65f 73f
5:42 22 26 mph 1005.8mb 65f 73f
5:36 22 28 mph 1005.8mb 64f 73f
5:30 22 26 mph 1005.9mb 64f 73f
5:24 22 29 mph 1006mb 64f 73f
5:18 23 28 mph 1006mb 64f 74f
5:12 22 26 mph 1006.1mb 64f 73f
5:06 21 25 mph 1006.2mb 64f 73f
5:00 22 25 mph 1006.2mb 63f 73f
4:54 21 25 mph 1006mb 63f 73f
4:48 22 25 mph 1006.1mb 63f 74f
4:42 18 23 mph 1006.2mb 62f 74f
4:36 20 23 mph 1006.3mb 62f 74f
4:30 16 22 mph 1006.2mb 62f 73f
4:24 15 22 mph 1006.2mb 62f 72f
4:18 16 22 mph 1006.2mb 62f 72f
4:12 17 22 mph 1006.3mb 62f 72f
4:06 18 21 mph 1006.5mb 61f 72f
4:00 18 22 mph 1006.5mb 61f 72f
3:54 17 22 mph 1006.6mb 60f 72f
3:48 16 23 mph 1006.7mb 60f 71f
3:42 20 22 mph 1006.7mb 60f 72f
3:36 17 21 mph 1006.6mb 60f 72f
3:30 18 22 mph 1006.7mb 60f 72f
3:24 20 22 mph 1006.8mb 60f 72f
3:18 18 22 mph 1007mb 59f 72f
3:12 20 23 mph 1007.1mb 59f 73f
3:06 20 22 mph 1007.2mb 59f 72f
3:00 17 22 mph 1007.1mb 58f 72f
2:54 18 22 mph 1007.2mb 58f 71f
2:48 17 22 mph 1007.3mb 58f 71f
2:42 17 22 mph 1007.5mb 58f 71f
2:36 18 22 mph 1007.6mb 58f 71f
2:30 16 20 mph 1007.7mb 58f 72f
2:24 17 21 mph 1007.7mb 58f 72f
2:18 17 23 mph 1007.6mb 58f 72f
2:12 17 21 mph 1007.6mb 58f 73f
2:06 17 21 mph 1007.5mb 58f 72f
2:00 18 21 mph 1007.6mb 59f 72f
1:54 17 22 mph 1007.6mb 59f 72f
1:48 18 23 mph 1007.7mb 59f 72f
1:42 21 24 mph 1007.8mb 59f 72f
1:36 21 23 mph 1007.8mb 59f 72f
1:30 17 21 mph 1007.9mb 59f 71f
1:24 18 23 mph 1007.9mb 59f 71f
1:18 20 23 mph 1008mb 59f 71f
1:12 18 22 mph 1008.1mb 59f 71f
1:06 20 22 mph 1008.1mb 59f 71f
1:00 17 22 mph 1008.1mb 59f 71f
12:54 20 23 mph 1008.2mb 59f 71f
12:48 20 24 mph 1008.2mb 59f 71f
12:42 20 22 mph 1007.9mb 59f 71f
12:36 21 23 mph 1008.1mb 59f 70f
12:30 20 24 mph 1008.1mb 59f 70f
12:24 21 24 mph 1008.2mb 58f 71f
12:18 18 23 mph 1008.1mb 58f 70f
12:12 17 21 mph 1008.2mb 58f 69f
12:06 18 22 mph 1008.2mb 59f 69f
12:00 18 23 mph 1008.3mb 59f 70f
11:54 21 24 mph 1008.5mb 59f 69f
11:48 21 24 mph 1008.5mb 59f 70f
11:42 20 22 mph 1008.5mb 59f 69f
11:36 18 22 mph 1008.5mb 59f 69f
11:30 17 21 mph 1008.6mb 59f 69f
11:24 17 21 mph 1008.4mb 59f 68f
11:18 17 21 mph 1008.5mb 59f 68f
11:12 17 22 mph 1008.5mb 59f 68f
11:06 18 23 mph 1008.6mb 59f 68f
11:00 20 24 mph 1008.7mb 60f 69f
10:54 18 23 mph 1008.7mb 60f 69f
10:48 20 24 mph 1008.7mb 61f 69f
10:42 20 24 mph 1008.7mb 61f 69f
10:36 17 21 mph 1008.8mb 61f 68f
10:30 17 21 mph 1008.8mb 61f 68f
10:24 16 20 mph 1008.8mb 61f 68f
10:18 16 22 mph 1008.9mb 60f 68f
10:12 16 20 mph 1009mb 60f 68f
10:06 15 18 mph 1008.9mb 60f 68f
10:00 16 20 mph 1009mb 60f 67f
9:54 15 17 mph 1009mb 60f 68f
9:48 15 18 mph 1009mb 60f 67f
9:42 14 17 mph 1009.1mb 60f 67f
9:36 14 16 mph 1009.1mb 60f 67f
9:30 13 17 mph 1008.9mb 60f 67f
9:24 13 16 mph 1009mb 60f 67f
9:18 14 16 mph 1009.1mb 60f 67f
9:12 13 15 mph 1009.2mb 60f 67f
9:06 11 14 mph 1009.2mb 60f 68f
9:00 10 14 mph 1009.2mb 60f 68f
8:54 13 15 mph 1009.3mb 60f 68f
8:48 11 14 mph 1009.3mb 59f 68f
8:42 9 11 mph 1009.4mb 59f 69f
8:36 11 14 mph 1009.4mb 59f 68f
8:30 10 13 mph 1009.4mb 59f 69f
8:24 8 11 mph 1009.4mb 59f 70f
8:18 10 14 mph 1009.4mb 59f 69f
8:12 11 14 mph 1009.3mb 59f 69f
8:06 9 11 mph 1009.5mb 59f 69f
8:00 8 10 mph 1009.4mb 59f 69f
7:54 5 8 mph 1009.5mb 59f 69f
7:48 8 11 mph 1009.3mb 59f 67f
7:42 7 8 mph 1009.5mb 59f 68f
7:36 8 11 mph 1009.4mb 59f 67f
7:30 9 14 mph 1009.5mb 59f 67f
7:24 10 14 mph 1009.6mb 59f 67f
7:18 9 14 mph 1009.4mb 59f 66f
7:12 7 9 mph 1009.5mb 59f 67f
7:06 8 11 mph 1009.5mb 59f 65f
7:00 3
mph
1009.4mb 59f 65f
6:54  -  1 mph 1009.3mb 59f 64f
6:48  -  1 mph 1009.4mb 59f 63f
6:42 1 2 mph 1009.5mb 59f 62f
6:36 2 3 mph 1009.5mb 59f 61f
6:30 2 3 mph 1009.4mb 59f 61f
6:24 1 2 mph 1009.5mb 59f 61f
6:18  -  2 mph 1009.5mb 59f 61f
6:12 2 3 mph 1009.5mb 59f 60f
6:06 2 3 mph 1009.5mb 59f 60f
6:00 1 2 mph 1009.4mb 59f 60f
5:54 1 3 mph 1009.3mb 59f 60f
5:48 2 3 mph 1009.3mb 58f 60f
5:42  -  mph 1009.1mb 59f 59f
5:36  -  2 mph 1009mb 58f 59f
5:30 1 2 mph 1009.2mb 58f 60f
5:24 2
mph
1009.3mb 58f 60f
5:18 1 2 mph 1009.3mb 58f 59f
5:12 2 3 mph 1009.1mb 58f 59f
5:06 3 5 mph 1009.1mb 58f 59f
5:00 5
mph
1009.2mb 58f 59f
4:54 3
mph
1009.3mb 58f 59f
4:48 3
mph
1009.2mb 58f 59f
4:42 1 2 mph 1009mb 58f 60f
4:36 1 2 mph 1008.9mb 58f 60f
4:30 2 3 mph 1009mb 58f 59f
4:24 2
mph
1008.8mb 58f 60f
4:18 1 2 mph 1008.8mb 58f 60f
4:12 1 2 mph 1008.7mb 58f 60f
4:06 2 3 mph 1008.8mb 58f 60f
4:00 2 3 mph 1008.8mb 58f 61f
3:54 2
mph
1008.8mb 58f 61f
3:48 1 3 mph 1008.8mb 57f 62f
3:42 1 3 mph 1008.8mb 57f 63f
3:36 5 6 mph 1008.8mb 57f 63f
3:30 3
mph
1009mb 57f 63f
3:24 3
mph
1009.1mb 57f 62f
3:18 2 3 mph 1009mb 57f 62f
3:12  -  2 mph 1009mb 57f 62f
3:06 1 2 mph 1009.1mb 57f 61f
3:00 2
mph
1009.1mb 57f 61f
2:54  -  1 mph 1009.2mb 56f 61f
2:48  -  1 mph 1009.1mb 56f 61f
2:42 1 2 mph 1009.1mb 56f 61f
2:36  -  2 mph 1009mb 56f 62f
2:30  -  mph 1009mb 56f 63f
2:24  -  1 mph 1009.1mb 56f 62f
2:18  -  mph 1009.2mb 56f 62f
2:12 3
mph
1009.2mb 56f 62f
2:06 2
mph
1009.3mb 56f 62f
2:00  -  2 mph 1009.2mb 56f 62f
1:54 2 3 mph 1009.4mb 56f 61f
1:48  -  2 mph 1009.3mb 56f 63f
1:42 1 3 mph 1009.3mb 56f 64f
1:36 3 6 mph 1009.3mb 56f 64f
1:30 2 5 mph 1009.2mb 56f 65f
1:24 2 6 mph 1009.3mb 56f 64f
1:18 5 6 mph 1009.4mb 56f 64f
1:12 3 5 mph 1009.4mb 56f 64f
1:06 1 2 mph 1009.4mb 56f 63f
1:00 2 3 mph 1009.5mb 56f 63f
12:54 1 2 mph 1009.6mb 56f 63f
12:48 2 3 mph 1009.4mb 56f 64f
12:42 3 5 mph 1009.3mb 57f 64f
12:36 3
mph
1009.4mb 57f 63f
12:30 1
mph
1009.4mb 57f 63f
12:24  -  1 mph 1009.4mb 57f 63f
12:18 1 5 mph 1009.3mb 57f 64f
12:12 3 6 mph 1009.3mb 57f 65f
12:06 5 6 mph 1009.3mb 57f 63f
12:00  -  1 mph 1009.3mb 58f 63f
So 08/02 11:54 2
mph
1009.3mb 58f 63f
11:48  -  2 mph 1009.3mb 58f 63f
11:42 1 2 mph 1009.2mb 58f 63f
11:36 2
mph
1009.3mb 58f 63f
11:30 2 3 mph 1009.1mb 58f 63f
11:24  -  7 mph 1009.1mb 58f 64f
11:18 1 2 mph 1009.1mb 58f 63f
11:12 2 3 mph 1009mb 58f 64f
11:06 3
mph
1009.2mb 58f 64f
11:00  -  2 mph 1009.3mb 58f 63f
10:54 1 2 mph 1009.4mb 59f 64f
10:48 2 5 mph 1009.3mb 59f 64f
10:42 3 6 mph 1009.4mb 59f 64f
10:36  -  2 mph 1009.4mb 59f 64f
10:30 2 3 mph 1009.3mb 58f 64f
10:24 2
mph
1009.5mb 58f 65f
10:18 2 3 mph 1009.7mb 59f 65f
10:12 2
mph
1009.9mb 61f 65f
10:06  -  mph 1010.2mb 62f 66f
10:00  -  1 mph 1010.2mb 62f 66f
9:54 1 2 mph 1010.4mb 63f 66f
9:48 1 3 mph 1010.5mb 66f 66f
9:42 2 3 mph 1010.6mb 66f 66f
9:36 1 2 mph 1010.5mb 66f 66f
9:30 2 3 mph 1010.6mb 66f 65f
9:24 2 5 mph 1010.6mb 66f 66f
9:18 2
mph
1010.6mb 66f 67f
9:12  -  2 mph 1010.5mb 66f 67f
9:06 1 2 mph 1010.6mb 66f 67f
9:00  -  2 mph 1010.5mb 66f 69f
8:54 2 5 mph 1010.3mb 66f 69f
8:48 5 6 mph 1010.2mb 66f 69f
8:42 3 6 mph 1010.2mb 66f 69f
8:36 5 7 mph 1010.2mb 66f 69f
8:30 3 8 mph 1010mb 66f 68f
8:24 6 7 mph 1010mb 66f 70f
8:18 6
mph
1009.8mb 66f 70f
8:12 2 5 mph 1009.7mb 65f 70f
8:06 3 5 mph 1009.6mb 65f 71f
8:00 3 6 mph 1009.5mb 65f 71f
7:54 6 10 mph 1009.6mb 64f 71f
7:48 7 9 mph 1009.6mb 64f 71f
7:42 9 14 mph 1009.5mb 64f 71f
7:36 11 14 mph 1009.5mb 64f 70f
7:30 11 15 mph 1009.4mb 63f 70f
7:24 13 15 mph 1009.3mb 63f 70f
7:18 13 15 mph 1009.3mb 63f 69f
7:12 9 10 mph 1009.3mb 63f 71f
7:06 8 10 mph 1009.3mb 63f 71f
7:00 9 11 mph 1009.3mb 63f 71f
6:54 10 13 mph 1009.3mb 63f 71f
6:48 11 14 mph 1009.3mb 63f 71f
6:42 9 10 mph 1009.2mb 63f 73f
6:36 9
mph
1009.3mb 63f 73f
6:30 5 6 mph 1009.3mb 64f 75f
6:24 6 10 mph 1009.3mb 65f 74f
6:18 10 15 mph 1009.4mb 64f 72f
6:12 11 14 mph 1009.4mb 64f 72f
6:06 10 16 mph 1009.4mb 64f 74f
6:00 13 15 mph 1009.5mb 64f 74f
5:54 13 16 mph 1009.5mb 64f 74f
5:48 10 16 mph 1009.6mb 64f 73f
5:42 16 17 mph 1009.7mb 63f 72f
5:36 17 20 mph 1009.8mb 63f 73f
5:30 16 18 mph 1009.9mb 63f 73f
5:24 16 20 mph 1009.9mb 63f 72f
5:18 17 22 mph 1009.8mb 63f 71f
5:12 18 21 mph 1009.8mb 62f 71f
5:06 18 20 mph 1009.7mb 62f 72f
5:00 17 20 mph 1009.8mb 62f 72f
4:54 17 20 mph 1009.7mb 62f 73f
4:48 13 20 mph 1009.7mb 62f 72f
4:42 16 18 mph 1009.8mb 62f 71f
4:36 16 20 mph 1009.9mb 61f 70f
4:30 16 21 mph 1009.9mb 61f 70f
4:24 16 20 mph 1009.9mb 61f 70f
4:18 16 18 mph 1010mb 61f 70f
4:12 13 15 mph 1009.8mb 60f 69f
4:06 14 16 mph 1009.9mb 60f 70f
4:00 14 20 mph 1010mb 60f 70f
3:54 17 21 mph 1010.1mb 60f 70f
3:48 14 20 mph 1010mb 60f 70f
3:42 14 18 mph 1010mb 60f 70f
3:36 17 21 mph 1010.1mb 60f 71f
3:30 17 20 mph 1010.1mb 60f 70f
3:24 16 21 mph 1010.1mb 59f 70f
3:18 15 20 mph 1010mb 59f 70f
3:12 15 18 mph 1010mb 59f 70f
3:06 15 21 mph 1010mb 59f 70f
3:00 10 14 mph 1009.8mb 58f 69f
2:54 13 17 mph 1009.9mb 58f 70f
2:48 11 15 mph 1009.9mb 58f 69f
2:42 14 18 mph 1009.9mb 58f 69f
2:36 18 21 mph 1010mb 58f 69f
2:30 16 18 mph 1010.1mb 58f 69f
2:24 17 20 mph 1010.2mb 58f 69f
2:18 18 23 mph 1010.1mb 58f 69f
2:12 20 23 mph 1010.3mb 58f 69f
2:06 15 22 mph 1010.3mb 58f 70f
2:00 14 20 mph 1010.2mb 57f 69f
1:54 13 17 mph 1010.2mb 57f 69f
1:48 14 21 mph 1010.2mb 57f 68f
1:42 18 21 mph 1010.4mb 57f 69f
1:36 14 20 mph 1010.4mb 57f 69f
1:30 16 18 mph 1010.4mb 57f 69f
1:24 14 16 mph 1010.4mb 57f 69f
1:18 14 17 mph 1010.4mb 57f 69f
1:12 14 20 mph 1010.5mb 57f 69f
1:06 14 17 mph 1010.4mb 57f 69f
1:00 11 17 mph 1010.5mb 57f 69f
12:54 13 16 mph 1010.6mb 57f 69f
12:48 10 11 mph 1010.7mb 57f 69f
12:42 10 13 mph 1010.7mb 57f 69f
12:36 11 14 mph 1010.7mb 57f 69f
12:30 13 15 mph 1010.8mb 57f 69f
12:24 11 15 mph 1010.8mb 57f 68f
12:18 14 18 mph 1010.9mb 57f 68f
12:12 16 18 mph 1010.9mb 57f 67f
12:06 16 21 mph 1010.9mb 57f 68f
12:00 17 21 mph 1010.9mb 57f 67f
11:54 17 20 mph 1010.9mb 57f 67f
11:48 15 18 mph 1010.9mb 57f 67f
11:42 14 18 mph 1010.9mb 57f 67f
11:36 15 17 mph 1010.9mb 57f 67f
11:30 16 18 mph 1010.9mb 57f 67f
11:24 14 16 mph 1010.7mb 57f 67f
11:18 13 16 mph 1010.7mb 57f 67f
11:12 13 16 mph 1010.7mb 57f 68f
11:06 11 14 mph 1010.7mb 57f 69f
11:00 11 14 mph 1010.6mb 57f 69f
10:54 10 13 mph 1010.7mb 57f 68f
10:48 13 15 mph 1010.7mb 57f 67f
10:42 13 15 mph 1010.7mb 57f 67f
10:36 13 14 mph 1010.7mb 57f 68f
10:30 14 17 mph 1010.7mb 57f 67f
10:24 11 14 mph 1010.5mb 57f 72f
10:18  -  8 mph 1010.4mb 57f 77f
10:12 5 8 mph 1010.2mb 57f 76f
10:06 7 10 mph 1010.3mb 57f 76f
10:00 8 10 mph 1010.4mb 58f 76f
9:54 7 10 mph 1010.5mb 58f 76f
9:48 7 10 mph 1010.5mb 58f 76f
9:42 6 9 mph 1010.4mb 58f 75f
9:36 7 9 mph 1010.3mb 58f 75f
9:30 6 9 mph 1010.3mb 58f 75f
9:24 6 9 mph 1010.3mb 58f 75f
9:18 6 10 mph 1010.1mb 58f 74f
9:12 6 13 mph 1010.1mb 58f 74f
9:06 8 11 mph 1010.2mb 58f 73f
9:00 7 11 mph 1010.2mb 58f 73f
8:54 9 11 mph 1010.2mb 58f 72f
8:48 6 7 mph 1010.2mb 58f 72f
8:42 5 8 mph 1010.2mb 58f 72f
8:36 6 8 mph 1010.2mb 58f 71f
8:30 7 10 mph 1010.2mb 58f 71f
8:24 7 10 mph 1010.2mb 58f 71f
8:18 6 11 mph 1010.2mb 58f 71f
8:12 8 11 mph 1010.2mb 57f 70f
8:06 6 10 mph 1010.1mb 57f 70f
8:00 8 10 mph 1010.1mb 57f 70f
7:54 3 6 mph 1010.1mb 57f 71f
7:48 6 9 mph 1010mb 57f 70f
7:42 6 9 mph 1009.9mb 57f 70f
7:36 6 9 mph 1009.7mb 57f 69f
7:30 3 6 mph 1009.7mb 57f 69f
7:24 5 6 mph 1009.7mb 57f 69f
7:18 5 7 mph 1009.6mb 57f 68f
7:12 5 6 mph 1009.5mb 57f 68f
7:06 3 7 mph 1009.4mb 57f 67f
7:00 5 8 mph 1009.4mb 57f 66f
6:54 6 7 mph 1009.3mb 57f 66f
6:48 6 10 mph 1009.2mb 57f 66f
6:42 6 9 mph 1009.2mb 57f 65f
6:36 6 9 mph 1009.2mb 57f 65f
6:30 7 10 mph 1009.1mb 57f 64f
6:24 6 9 mph 1009.1mb 57f 64f
6:18 7 10 mph 1009.1mb 57f 64f
6:12 8 11 mph 1009mb 57f 64f
6:06 8 11 mph 1009mb 57f 64f
6:00 8 13 mph 1008.9mb 57f 63f
5:54 9 11 mph 1008.8mb 57f 63f
5:48 8 11 mph 1008.8mb 57f 63f
5:42 8 10 mph 1008.8mb 57f 63f
5:36 6 10 mph 1008.8mb 57f 63f
5:30 6 10 mph 1008.6mb 57f 63f
5:24 8 11 mph 1008.4mb 57f 63f
5:18 8 10 mph 1008.4mb 57f 63f
5:12 7 10 mph 1008.4mb 57f 63f
5:06 8 9 mph 1008.3mb 56f 63f
5:00 7 10 mph 1008.2mb 56f 63f
4:54 6 9 mph 1008.3mb 56f 63f
4:48 7 10 mph 1008.3mb 56f 63f
4:42 7 9 mph 1008.2mb 56f 63f
4:36 5 8 mph 1008.1mb 56f 63f
4:30 6 7 mph 1008.1mb 56f 63f
4:24 3 6 mph 1008.1mb 56f 62f
4:18 3 6 mph 1007.9mb 56f 63f
4:12 3 6 mph 1007.9mb 56f 63f
4:06  -  2 mph 1007.9mb 56f 62f
4:00 1 3 mph 1007.8mb 56f 63f
3:54 2 6 mph 1007.7mb 56f 63f
3:48 3 8 mph 1007.7mb 56f 64f
3:42 7 10 mph 1007.7mb 56f 64f
3:36 5 8 mph 1007.7mb 56f 64f
3:30 6 8 mph 1007.7mb 56f 64f
3:24 5 8 mph 1007.8mb 56f 64f
3:18 6 9 mph 1007.8mb 56f 65f
3:12 7 10 mph 1007.8mb 56f 65f
3:06 7 11 mph 1007.8mb 56f 65f
3:00 8 10 mph 1007.7mb 56f 65f
2:54 7 10 mph 1007.6mb 55f 66f
2:48  -  mph - 55f -
2:42 7 11 mph 1007.5mb 55f -
2:36 7 13 mph 1007.5mb 55f -
2:30 7 13 mph 1007.4mb 55f 67f
2:24 8 13 mph 1007.4mb 55f 67f
2:18 6 9 mph 1007.4mb 55f 67f
2:12 6 9 mph 1007.4mb 55f 67f
2:06 7 8 mph 1007.4mb 55f 67f
2:00 7 10 mph 1007.4mb 55f 67f
1:54 6 10 mph 1007.4mb 55f 68f
1:48 6 9 mph 1007.4mb 55f 68f
1:42 6 10 mph 1007.5mb 55f 68f
1:36 7 10 mph 1007.6mb 55f 68f
1:30 6 9 mph 1007.5mb 55f 68f
1:24 6 8 mph 1007.5mb 55f 69f
1:18 6 8 mph 1007.5mb 55f 69f
1:12 6 9 mph 1007.5mb 55f 69f
1:06 5 7 mph 1007.5mb 55f 69f
1:00 5 8 mph 1007.5mb 55f 69f
12:54 5 8 mph 1007.5mb 55f 69f
12:48 7 9 mph 1007.5mb 55f 70f
12:42 6 9 mph 1007.6mb 55f 70f
12:36 6 10 mph 1007.6mb 55f 70f
12:30 5 7 mph 1007.5mb 55f 70f
12:24 5 7 mph 1007.6mb 55f 70f
12:18 6 8 mph 1007.6mb 55f 70f
12:12 6 8 mph 1007.6mb 55f 70f
12:06 5 7 mph 1007.6mb 55f 69f
12:00 5 7 mph 1007.6mb 55f 69f
Sa 08/01 11:54 5 7 mph 1007.6mb 55f 68f
11:48 2 6 mph 1007.6mb 55f -
11:42 3
mph
1007.6mb 55f -
11:36 1 3 mph 1007.6mb 55f -
11:30 2 3 mph 1007.5mb 55f 66f
11:24 2 3 mph 1007.5mb 55f 65f
11:18 1 2 mph 1007.5mb 55f 65f
11:12 1 3 mph 1007.5mb 55f 67f
11:06 3 5 mph 1007.5mb 55f 67f
11:00 2 3 mph 1007.4mb 55f 68f
10:54 3 5 mph 1007.5mb 55f 68f
10:48 3 6 mph 1007.4mb 55f 69f
10:42 3 5 mph 1007.5mb 55f 69f
10:36 3 5 mph 1007.4mb 55f 70f
10:30 3 5 mph 1007.4mb 55f 70f
10:24 3 5 mph 1007.4mb 55f 71f
10:18 3 5 mph 1007.4mb 55f 70f
10:12 3 5 mph 1007.4mb 55f 70f
10:06 2 3 mph 1007.3mb 55f 70f
10:00 1 5 mph 1007.3mb 55f 70f
9:54 3
mph
1007.2mb 55f 69f
9:48 3 5 mph 1007.2mb 55f 69f
9:42 3
mph
1007.2mb 55f 69f
9:36 3
mph
1007.2mb 55f 69f
9:30 2 3 mph 1007.2mb 55f 71f
9:24 2 5 mph 1007.2mb 55f 72f
9:18 3 5 mph 1007.2mb 57f 72f
9:12 5 6 mph 1007.1mb 58f 73f
9:06 5 6 mph 1007mb 59f 73f
9:00 5 6 mph 1006.9mb 60f 74f
8:54 5 7 mph 1006.8mb 63f 74f
8:48 6
mph
1006.6mb 65f 75f
8:42 6 7 mph 1006.6mb 65f 75f
8:36 6 7 mph 1006.5mb 65f 75f
8:30 6
mph
1006.4mb 65f 76f
8:24 3 5 mph 1006.3mb 65f 76f
8:18 3 5 mph 1006.2mb 65f 76f
8:12 3
mph
1006.1mb 65f 76f
8:06 3 5 mph 1006mb 65f 77f
8:00 3 6 mph 1005.8mb 65f 78f
7:54 6 7 mph 1005.8mb 65f 78f
7:48 5 7 mph 1005.7mb 65f 78f
7:42 6 8 mph 1005.6mb 65f 79f
7:36 6 10 mph 1005.5mb 65f 79f
7:30 8 11 mph 1005.4mb 65f 79f
7:24 8 14 mph 1005.3mb 65f 80f
7:18 9 14 mph 1005.3mb 65f 80f
7:12 8 13 mph 1005.1mb 64f 81f
7:06 8 13 mph 1005.1mb 64f 81f
7:00 8 11 mph 1005mb 63f 81f
6:54 7 13 mph 1004.9mb 63f 82f
6:48 7 11 mph 1004.8mb 63f 82f
6:42 7 8 mph 1004.7mb 62f 83f
6:36 6 10 mph 1004.6mb 62f 84f
6:30 7 13 mph 1004.6mb 62f 84f
6:24 8 14 mph 1004.5mb 62f 84f
6:18 9 15 mph 1004.4mb 62f 84f
6:12 9 15 mph 1004.4mb 62f 85f
6:06 6 9 mph 1004.3mb 62f 85f
6:00 5 14 mph 1004.3mb 62f 85f
5:54 10 14 mph 1004.2mb 62f 85f
5:48 10 16 mph 1004.2mb 62f 85f
5:42 8 15 mph 1004.2mb 63f 85f
5:36 11 17 mph 1004.2mb 63f 85f
5:30 13 16 mph 1004mb 63f 85f
5:24 8 16 mph 1004mb 63f 85f
5:18 6 11 mph 1004.1mb 63f 85f
5:12 6 17 mph 1004.1mb 62f 85f
5:06 13 20 mph 1003.9mb 62f 84f
5:00 7 14 mph 1004mb 62f 85f
4:54 7 16 mph 1004mb 61f 84f
4:48 9 14 mph 1003.9mb 61f 84f
4:42 6 8 mph 1004mb 61f 84f
4:36 6 14 mph 1004mb 60f 84f
4:30 9 15 mph 1004mb 60f 83f
4:24 11 15 mph 1004.1mb 60f 84f
4:18 7 13 mph 1004.1mb 60f 84f
4:12 11 16 mph 1004.1mb 60f 85f
4:06 9 17 mph 1004.1mb 60f 85f
4:00 9 13 mph 1004.1mb 59f 85f
3:54 10 15 mph 1004.1mb 59f 84f
3:48 8 14 mph 1004mb 59f 83f
3:42 6 14 mph 1004mb 59f 83f
3:36 9 15 mph 1004.1mb 59f 84f
3:30 10 16 mph 1004.2mb 58f 83f
3:24 10 15 mph 1004.2mb 58f 84f
3:18 9 13 mph 1004.3mb 58f 85f
3:12 10 14 mph 1004.3mb 58f 84f
3:06 10 15 mph 1004.3mb 58f 85f
3:00 6 9 mph 1004.3mb 58f 84f
2:54 7 14 mph 1004.4mb 58f 83f
2:48 6 14 mph 1004.4mb 58f 83f
2:42 7 14 mph 1004.4mb 57f 84f
2:36 7 14 mph 1004.4mb 57f 83f
2:30 9 16 mph 1004.5mb 57f 84f
2:24 8 16 mph 1004.4mb 57f 84f
2:18 5 14 mph 1004.5mb 57f 83f
2:12 10 16 mph 1004.7mb 56f 84f
2:06 7 11 mph 1004.6mb 56f 83f
2:00 7 14 mph 1004.7mb 56f 83f
1:54 7 11 mph 1004.7mb 56f 84f
1:48 7 17 mph 1004.9mb 56f 83f
1:42 7 13 mph 1004.9mb 56f 84f
1:36 9 16 mph 1004.9mb 56f 83f
1:30 8 14 mph 1004.8mb 56f 83f
1:24 8 20 mph 1004.9mb 56f 83f
1:18 10 16 mph 1004.9mb 55f 82f
1:12 10 14 mph 1005mb 55f 82f
1:06 13 18 mph 1005.1mb 55f 82f
1:00 8 15 mph 1005.1mb 55f 81f
12:54 9 17 mph 1005.2mb 55f 81f
12:48 13 17 mph 1005.1mb 55f 81f
12:42 13 21 mph 1005.1mb 55f 81f
12:36 13 17 mph 1005.1mb 55f 80f
12:30 9 15 mph 1005.2mb 55f 81f
12:24 8 11 mph 1005.3mb 55f 80f
12:18 8 14 mph 1005.4mb 55f 80f
12:12 8 14 mph 1005.5mb 55f 80f
12:06 10 17 mph 1005.4mb 55f 80f
12:00 10 18 mph 1005.4mb 55f 79f
11:54 8 14 mph 1005.5mb 55f 80f
11:48 9 11 mph 1005.5mb 55f 79f
11:42 7 13 mph 1005.6mb 55f 79f
11:36 8 11 mph 1005.6mb 55f 78f
11:30 9 14 mph 1005.6mb 55f 79f
11:24 5 10 mph 1005.6mb 56f 80f
11:18 7 13 mph 1005.6mb 56f 80f
11:12 6 11 mph 1005.6mb 56f 80f
11:06 7 10 mph 1005.5mb 56f 80f
11:00 7 9 mph 1005.4mb 56f 80f
10:54 7 13 mph 1005.4mb 56f 80f
10:48 7 10 mph 1005.4mb 56f 80f
10:42 8 13 mph 1005.4mb 56f 80f
10:36 5 14 mph 1005.4mb 56f 81f
10:30 6 11 mph 1005.4mb 56f 81f
10:24 10 17 mph 1005.4mb 56f 80f
10:18 6 10 mph 1005.4mb 56f 80f
10:12 5 10 mph 1005.3mb 56f 79f
10:06 8 11 mph 1005.3mb 56f 79f
10:00 8 10 mph 1005.3mb 56f 79f
9:54 6 10 mph 1005.1mb 56f 79f
9:48 6 10 mph 1005.3mb 56f 78f
9:42 6 10 mph 1005.3mb 56f 78f
9:36 7 10 mph 1005.3mb 56f 77f
9:30 6 14 mph 1005.3mb 56f 77f
9:24 6 16 mph 1005.4mb 58f 76f
9:18 8 16 mph 1005.5mb 58f 76f
9:12 10 14 mph 1005.5mb 58f 76f
9:06 6 10 mph 1005.3mb 58f 76f
9:00 8 11 mph 1005.4mb 58f 76f
8:54 6 8 mph 1005.4mb 58f 75f
8:48 7 8 mph 1005.4mb 58f 75f
8:42 7 9 mph 1005.4mb 58f 74f
8:36 2 6 mph 1005.4mb 58f 74f
8:30 1 3 mph 1005.3mb 58f 74f
8:24 2 3 mph 1005.3mb 58f 72f
8:18 3 8 mph 1005.2mb 58f 69f
8:12 7 9 mph 1005.2mb 58f 69f
8:06 7 9 mph 1005.2mb 58f 70f
8:00 6 7 mph 1005.3mb 58f 71f
7:54 5 6 mph 1005.3mb 58f 70f
7:48 6 10 mph 1005.4mb 57f 69f
7:42 9 11 mph 1005.5mb 57f 69f
7:36 6 8 mph 1005.6mb 57f 71f
7:30 3
mph
1005.6mb 57f 71f
7:24 3 5 mph 1005.6mb 57f 69f
7:18 3 5 mph 1005.7mb 57f 69f
7:12 1 3 mph 1005.7mb 57f 69f
7:06 2
mph
1005.6mb 56f 69f
7:00 2 3 mph 1005.6mb 56f 69f
6:54 2 5 mph 1005.6mb 56f 68f
6:48 5 6 mph 1005.6mb 56f 68f
6:42 6
mph
1005.7mb 56f 66f
6:36 5
mph
1005.7mb 56f 65f
6:30 3
mph
1005.7mb 56f 64f
6:24 2 3 mph 1005.7mb 56f 64f
6:18 2
mph
1005.8mb 56f 64f
6:12  -  2 mph 1005.8mb 56f 63f
6:06  -  3 mph 1005.7mb 56f 64f
6:00 2 3 mph 1005.8mb 56f 65f
5:54 2 3 mph 1005.8mb 56f 64f
5:48 3 5 mph 1005.8mb 56f 63f
5:42 3 5 mph 1005.8mb 56f 63f
5:36 3
mph
1005.8mb 56f 64f
5:30  -  1 mph 1005.8mb 56f 63f
5:24  -  2 mph 1005.8mb 56f 63f
5:18 1 3 mph 1005.7mb 56f 61f
5:12 2 3 mph 1005.7mb 56f 62f
5:06 2 3 mph 1005.7mb 56f 62f
5:00 2
mph
1005.8mb 56f 64f
4:54 1 2 mph 1005.8mb 56f 63f
4:48  -  2 mph 1005.9mb 56f 62f
4:42  -  2 mph 1006mb 56f 64f
4:36 2 5 mph 1006mb 56f 65f
4:30 3 5 mph 1006mb 56f 65f
4:24 5 6 mph 1006mb 55f 64f
4:18 3 5 mph 1006mb 55f 63f
4:12  -  1 mph 1005.9mb 55f 64f
4:06 1 2 mph 1006mb 55f 64f
4:00  -  3 mph 1006.1mb 55f 64f
3:54 2 5 mph 1006.2mb 55f 63f
3:48  -  2 mph 1006.2mb 55f 63f
3:42 1 2 mph 1006.1mb 55f 63f
3:36 1 2 mph 1006.2mb 55f 64f
3:30 2 3 mph 1006.2mb 54f 65f
3:24 2 3 mph 1006.2mb 54f 65f
3:18 1 2 mph 1006.3mb 55f 65f
3:12 1 3 mph 1006.3mb 55f 66f
3:06 2 3 mph 1006.3mb 55f 65f
3:00  -  3 mph 1006.3mb 54f 65f
2:54 1 2 mph 1006.3mb 54f 65f
2:48  -  mph 1006.3mb 54f 65f
2:42  -  mph 1006.3mb 54f 65f
2:36  -  mph 1006.3mb 54f 65f
2:30 1 2 mph 1006.4mb 54f 65f
2:24  -  2 mph 1006.5mb 54f 65f
2:18  -  1 mph 1006.5mb 54f 65f
2:12  -  2 mph 1006.5mb 54f 65f
2:06  -  2 mph 1006.5mb 54f 65f
2:00 2
mph
1006.5mb 54f 64f
1:54  -  3 mph 1006.6mb 54f 66f
1:48 3 6 mph 1006.7mb 53f 69f
1:42 2 6 mph 1006.7mb 53f 69f
1:36 5 8 mph 1006.8mb 53f 69f
1:30 6 8 mph 1006.7mb 53f 69f
1:24 6 8 mph 1006.7mb 53f 69f
1:18 5 8 mph 1006.7mb 53f 69f
1:12 5 8 mph 1006.8mb 53f 70f
1:06 3 7 mph 1006.8mb 53f 70f
1:00 5 7 mph 1006.9mb 53f 70f
12:54 5 6 mph 1007mb 53f 70f
12:48 5 8 mph 1007.1mb 53f 70f
12:42 5 7 mph 1007.2mb 53f 68f
12:36 3 6 mph 1007.2mb 53f 66f
12:30 1 2 mph 1007.3mb 53f 64f
12:24  -  1 mph 1007.4mb 53f 64f
12:18  -  2 mph 1007.5mb 53f 64f
12:12 2
mph
1007.6mb 53f 63f
12:06  -  2 mph 1007.6mb 53f 64f
12:00 1 2 mph 1007.6mb 53f 65f
Fr 07/31 11:54 1 3 mph 1007.6mb 53f 67f
11:48 2
mph
1007.6mb 53f 65f
11:42 2 3 mph 1007.6mb 53f 64f
11:36 2 3 mph 1007.5mb 53f 64f
11:30  -  1 mph 1007.4mb 53f 64f
11:24 1 2 mph 1007.4mb 53f 65f
11:18 1
mph
1007.4mb 53f 66f
11:12 1
mph
1007.4mb 53f 65f
11:06  -  1 mph 1007.4mb 53f 65f
11:00  -  1 mph 1007.4mb 53f 65f
10:54 1 3 mph 1007.4mb 53f 65f
10:48  -  mph 1007.3mb 53f 66f
10:42  -  mph 1007.3mb 53f 66f